sensor_id;sensor_type;location;lat;lon;timestamp;P1;durP1;ratioP1;P2;durP2;ratioP2
64060;SDS011;60147;55.036;73.242;2023-05-16T00:07:48;98.28;;;28.88;;
64060;SDS011;60147;55.036;73.242;2023-05-16T00:10:14;93.90;;;28.48;;
64060;SDS011;60147;55.036;73.242;2023-05-16T00:15:26;86.18;;;29.25;;
64060;SDS011;60147;55.036;73.242;2023-05-16T00:17:54;84.03;;;29.73;;
64060;SDS011;60147;55.036;73.242;2023-05-16T00:20:23;70.55;;;28.38;;
64060;SDS011;60147;55.036;73.242;2023-05-16T00:22:49;88.90;;;29.15;;
64060;SDS011;60147;55.036;73.242;2023-05-16T00:25:15;65.18;;;29.48;;
64060;SDS011;60147;55.036;73.242;2023-05-16T00:27:41;80.93;;;28.83;;
64060;SDS011;60147;55.036;73.242;2023-05-16T00:30:08;74.57;;;28.35;;
64060;SDS011;60147;55.036;73.242;2023-05-16T00:32:53;71.05;;;28.05;;
64060;SDS011;60147;55.036;73.242;2023-05-16T00:35:19;73.03;;;28.40;;
64060;SDS011;60147;55.036;73.242;2023-05-16T00:37:45;62.35;;;28.65;;
64060;SDS011;60147;55.036;73.242;2023-05-16T00:40:11;74.85;;;29.42;;
64060;SDS011;60147;55.036;73.242;2023-05-16T00:42:37;67.93;;;28.52;;
64060;SDS011;60147;55.036;73.242;2023-05-16T00:45:03;55.00;;;28.98;;
64060;SDS011;60147;55.036;73.242;2023-05-16T00:47:30;56.38;;;29.10;;
64060;SDS011;60147;55.036;73.242;2023-05-16T00:49:55;56.58;;;29.98;;
64060;SDS011;60147;55.036;73.242;2023-05-16T00:52:21;52.42;;;30.10;;
64060;SDS011;60147;55.036;73.242;2023-05-16T00:54:49;58.97;;;30.58;;
64060;SDS011;60147;55.036;73.242;2023-05-16T00:57:33;54.35;;;28.38;;
64060;SDS011;60147;55.036;73.242;2023-05-16T01:00:02;54.80;;;28.90;;
64060;SDS011;60147;55.036;73.242;2023-05-16T01:02:28;54.58;;;30.02;;
64060;SDS011;60147;55.036;73.242;2023-05-16T01:07:38;58.67;;;31.65;;
64060;SDS011;60147;55.036;73.242;2023-05-16T01:10:22;60.10;;;31.58;;
64060;SDS011;60147;55.036;73.242;2023-05-16T01:15:37;54.13;;;31.65;;
64060;SDS011;60147;55.036;73.242;2023-05-16T01:20:42;63.05;;;34.83;;
64060;SDS011;60147;55.036;73.242;2023-05-16T01:26:22;61.67;;;36.40;;
64060;SDS011;60147;55.036;73.242;2023-05-16T01:29:06;61.58;;;36.67;;
64060;SDS011;60147;55.036;73.242;2023-05-16T01:31:51;63.00;;;38.78;;
64060;SDS011;60147;55.036;73.242;2023-05-16T01:34:17;59.75;;;37.65;;
64060;SDS011;60147;55.036;73.242;2023-05-16T01:36:46;67.18;;;37.78;;
64060;SDS011;60147;55.036;73.242;2023-05-16T01:39:21;62.90;;;38.33;;
64060;SDS011;60147;55.036;73.242;2023-05-16T01:42:13;63.00;;;37.60;;
64060;SDS011;60147;55.036;73.242;2023-05-16T01:47:25;59.20;;;37.80;;
64060;SDS011;60147;55.036;73.242;2023-05-16T01:52:24;57.03;;;36.33;;
64060;SDS011;60147;55.036;73.242;2023-05-16T01:55:13;55.67;;;34.88;;
64060;SDS011;60147;55.036;73.242;2023-05-16T01:57:40;54.63;;;35.40;;
64060;SDS011;60147;55.036;73.242;2023-05-16T02:00:25;53.72;;;33.20;;
64060;SDS011;60147;55.036;73.242;2023-05-16T02:02:51;53.60;;;33.75;;
64060;SDS011;60147;55.036;73.242;2023-05-16T02:05:16;60.25;;;31.42;;
64060;SDS011;60147;55.036;73.242;2023-05-16T02:07:42;51.42;;;29.70;;
64060;SDS011;60147;55.036;73.242;2023-05-16T02:10:27;45.33;;;29.35;;
64060;SDS011;60147;55.036;73.242;2023-05-16T02:12:53;50.75;;;29.48;;
64060;SDS011;60147;55.036;73.242;2023-05-16T02:15:19;47.83;;;29.17;;
64060;SDS011;60147;55.036;73.242;2023-05-16T02:17:47;49.08;;;30.60;;
64060;SDS011;60147;55.036;73.242;2023-05-16T02:20:31;52.55;;;28.75;;
64060;SDS011;60147;55.036;73.242;2023-05-16T02:22:59;40.08;;;24.17;;
64060;SDS011;60147;55.036;73.242;2023-05-16T02:25:26;34.60;;;22.95;;
64060;SDS011;60147;55.036;73.242;2023-05-16T02:27:51;42.95;;;24.23;;
64060;SDS011;60147;55.036;73.242;2023-05-16T02:30:36;41.45;;;23.17;;
64060;SDS011;60147;55.036;73.242;2023-05-16T02:33:02;35.95;;;22.15;;
64060;SDS011;60147;55.036;73.242;2023-05-16T02:35:29;41.28;;;23.00;;
64060;SDS011;60147;55.036;73.242;2023-05-16T02:40:58;34.13;;;21.35;;
64060;SDS011;60147;55.036;73.242;2023-05-16T02:43:42;37.58;;;20.08;;
64060;SDS011;60147;55.036;73.242;2023-05-16T02:49:04;34.17;;;17.98;;
64060;SDS011;60147;55.036;73.242;2023-05-16T02:51:30;25.27;;;15.90;;
64060;SDS011;60147;55.036;73.242;2023-05-16T02:53:56;27.30;;;15.95;;
64060;SDS011;60147;55.036;73.242;2023-05-16T02:56:40;28.90;;;15.50;;
64060;SDS011;60147;55.036;73.242;2023-05-16T02:59:24;27.45;;;14.95;;
64060;SDS011;60147;55.036;73.242;2023-05-16T03:01:50;30.27;;;16.00;;
64060;SDS011;60147;55.036;73.242;2023-05-16T03:04:35;29.25;;;15.68;;
64060;SDS011;60147;55.036;73.242;2023-05-16T03:07:02;23.95;;;14.63;;
64060;SDS011;60147;55.036;73.242;2023-05-16T03:12:31;29.27;;;14.23;;
64060;SDS011;60147;55.036;73.242;2023-05-16T03:14:58;23.98;;;13.25;;
64060;SDS011;60147;55.036;73.242;2023-05-16T03:17:24;27.27;;;13.80;;
64060;SDS011;60147;55.036;73.242;2023-05-16T03:19:50;17.13;;;10.35;;
64060;SDS011;60147;55.036;73.242;2023-05-16T03:22:16;22.85;;;11.05;;
64060;SDS011;60147;55.036;73.242;2023-05-16T03:24:42;15.85;;;8.20;;
64060;SDS011;60147;55.036;73.242;2023-05-16T03:27:10;16.67;;;7.97;;
64060;SDS011;60147;55.036;73.242;2023-05-16T03:29:36;19.10;;;8.25;;
64060;SDS011;60147;55.036;73.242;2023-05-16T03:32:02;20.77;;;10.05;;
64060;SDS011;60147;55.036;73.242;2023-05-16T03:34:47;23.35;;;7.28;;
64060;SDS011;60147;55.036;73.242;2023-05-16T03:39:58;10.38;;;5.95;;
64060;SDS011;60147;55.036;73.242;2023-05-16T03:42:24;16.95;;;6.35;;
64060;SDS011;60147;55.036;73.242;2023-05-16T03:44:50;8.77;;;5.70;;
64060;SDS011;60147;55.036;73.242;2023-05-16T03:50:02;10.20;;;5.32;;
64060;SDS011;60147;55.036;73.242;2023-05-16T03:52:28;11.75;;;5.10;;
64060;SDS011;60147;55.036;73.242;2023-05-16T03:54:54;20.00;;;4.55;;
64060;SDS011;60147;55.036;73.242;2023-05-16T03:57:20;15.57;;;7.72;;
64060;SDS011;60147;55.036;73.242;2023-05-16T04:00:04;52.40;;;26.23;;
64060;SDS011;60147;55.036;73.242;2023-05-16T04:02:37;246.85;;;146.90;;
64060;SDS011;60147;55.036;73.242;2023-05-16T04:10:33;76.22;;;47.30;;
64060;SDS011;60147;55.036;73.242;2023-05-16T04:13:00;14.80;;;7.38;;
64060;SDS011;60147;55.036;73.242;2023-05-16T04:15:26;19.05;;;11.25;;
64060;SDS011;60147;55.036;73.242;2023-05-16T04:20:54;27.88;;;16.73;;
64060;SDS011;60147;55.036;73.242;2023-05-16T04:23:20;26.85;;;21.10;;
64060;SDS011;60147;55.036;73.242;2023-05-16T04:25:46;11.45;;;5.88;;
64060;SDS011;60147;55.036;73.242;2023-05-16T04:28:12;11.60;;;4.47;;
64060;SDS011;60147;55.036;73.242;2023-05-16T04:30:38;7.95;;;4.35;;
64060;SDS011;60147;55.036;73.242;2023-05-16T04:33:03;7.50;;;3.90;;
64060;SDS011;60147;55.036;73.242;2023-05-16T04:35:29;7.47;;;4.10;;
64060;SDS011;60147;55.036;73.242;2023-05-16T04:37:55;7.65;;;3.92;;
64060;SDS011;60147;55.036;73.242;2023-05-16T04:43:13;7.43;;;4.00;;
64060;SDS011;60147;55.036;73.242;2023-05-16T04:45:38;10.27;;;4.72;;
64060;SDS011;60147;55.036;73.242;2023-05-16T04:48:26;7.88;;;3.75;;
64060;SDS011;60147;55.036;73.242;2023-05-16T04:50:52;6.20;;;3.63;;
64060;SDS011;60147;55.036;73.242;2023-05-16T04:56:02;4.72;;;3.05;;
64060;SDS011;60147;55.036;73.242;2023-05-16T04:58:30;8.88;;;3.83;;
64060;SDS011;60147;55.036;73.242;2023-05-16T05:01:14;7.97;;;3.53;;
64060;SDS011;60147;55.036;73.242;2023-05-16T05:03:41;8.13;;;3.70;;
64060;SDS011;60147;55.036;73.242;2023-05-16T05:06:25;7.97;;;3.50;;
64060;SDS011;60147;55.036;73.242;2023-05-16T05:08:51;9.00;;;4.03;;
64060;SDS011;60147;55.036;73.242;2023-05-16T05:11:17;19.38;;;10.90;;
64060;SDS011;60147;55.036;73.242;2023-05-16T05:13:43;9.57;;;4.32;;
64060;SDS011;60147;55.036;73.242;2023-05-16T05:16:10;11.48;;;3.45;;
64060;SDS011;60147;55.036;73.242;2023-05-16T05:18:54;14.45;;;5.93;;
64060;SDS011;60147;55.036;73.242;2023-05-16T05:21:20;16.08;;;5.85;;
64060;SDS011;60147;55.036;73.242;2023-05-16T05:24:07;16.02;;;3.42;;
64060;SDS011;60147;55.036;73.242;2023-05-16T05:26:32;43.90;;;16.77;;
64060;SDS011;60147;55.036;73.242;2023-05-16T05:28:58;53.70;;;23.20;;
64060;SDS011;60147;55.036;73.242;2023-05-16T05:34:09;39.00;;;21.70;;
64060;SDS011;60147;55.036;73.242;2023-05-16T05:36:53;13.18;;;4.70;;
64060;SDS011;60147;55.036;73.242;2023-05-16T05:39:19;8.68;;;3.63;;
64060;SDS011;60147;55.036;73.242;2023-05-16T05:41:45;14.25;;;4.13;;
64060;SDS011;60147;55.036;73.242;2023-05-16T05:44:29;11.90;;;4.75;;
64060;SDS011;60147;55.036;73.242;2023-05-16T05:49:58;13.32;;;7.38;;
64060;SDS011;60147;55.036;73.242;2023-05-16T05:52:24;17.48;;;8.98;;
64060;SDS011;60147;55.036;73.242;2023-05-16T05:54:50;15.25;;;6.53;;
64060;SDS011;60147;55.036;73.242;2023-05-16T05:57:16;9.65;;;4.45;;
64060;SDS011;60147;55.036;73.242;2023-05-16T05:59:42;8.57;;;3.67;;
64060;SDS011;60147;55.036;73.242;2023-05-16T06:02:08;6.03;;;2.92;;
64060;SDS011;60147;55.036;73.242;2023-05-16T06:04:34;11.43;;;3.85;;
64060;SDS011;60147;55.036;73.242;2023-05-16T06:07:19;7.70;;;3.38;;
64060;SDS011;60147;55.036;73.242;2023-05-16T06:10:03;7.82;;;3.50;;
64060;SDS011;60147;55.036;73.242;2023-05-16T06:12:29;9.13;;;3.90;;
64060;SDS011;60147;55.036;73.242;2023-05-16T06:14:55;7.97;;;3.03;;
64060;SDS011;60147;55.036;73.242;2023-05-16T06:17:21;6.05;;;2.28;;
64060;SDS011;60147;55.036;73.242;2023-05-16T06:19:47;5.68;;;2.10;;
64060;SDS011;60147;55.036;73.242;2023-05-16T06:22:31;10.73;;;2.88;;
64060;SDS011;60147;55.036;73.242;2023-05-16T06:24:57;5.00;;;2.50;;
64060;SDS011;60147;55.036;73.242;2023-05-16T06:27:41;9.15;;;3.72;;
64060;SDS011;60147;55.036;73.242;2023-05-16T06:30:07;11.27;;;2.80;;
64060;SDS011;60147;55.036;73.242;2023-05-16T06:32:34;9.77;;;4.70;;
64060;SDS011;60147;55.036;73.242;2023-05-16T06:35:18;7.68;;;3.78;;
64060;SDS011;60147;55.036;73.242;2023-05-16T06:37:44;10.30;;;3.05;;
64060;SDS011;60147;55.036;73.242;2023-05-16T06:40:10;14.27;;;4.45;;
64060;SDS011;60147;55.036;73.242;2023-05-16T06:42:36;15.70;;;3.05;;
64060;SDS011;60147;55.036;73.242;2023-05-16T06:45:02;10.93;;;4.63;;
64060;SDS011;60147;55.036;73.242;2023-05-16T06:47:29;14.90;;;4.22;;
64060;SDS011;60147;55.036;73.242;2023-05-16T06:50:13;7.00;;;3.67;;
64060;SDS011;60147;55.036;73.242;2023-05-16T06:52:39;8.95;;;3.10;;
64060;SDS011;60147;55.036;73.242;2023-05-16T06:55:06;7.20;;;3.08;;
64060;SDS011;60147;55.036;73.242;2023-05-16T06:57:32;7.85;;;3.33;;
64060;SDS011;60147;55.036;73.242;2023-05-16T06:59:58;5.88;;;2.67;;
64060;SDS011;60147;55.036;73.242;2023-05-16T07:02:24;6.78;;;2.25;;
64060;SDS011;60147;55.036;73.242;2023-05-16T07:04:50;12.02;;;5.03;;
64060;SDS011;60147;55.036;73.242;2023-05-16T07:07:16;6.78;;;2.60;;
64060;SDS011;60147;55.036;73.242;2023-05-16T07:09:42;10.13;;;2.55;;
64060;SDS011;60147;55.036;73.242;2023-05-16T07:12:08;8.77;;;2.25;;
64060;SDS011;60147;55.036;73.242;2023-05-16T07:14:34;7.40;;;2.58;;
64060;SDS011;60147;55.036;73.242;2023-05-16T07:17:00;9.38;;;2.40;;
64060;SDS011;60147;55.036;73.242;2023-05-16T07:19:26;8.40;;;1.83;;
64060;SDS011;60147;55.036;73.242;2023-05-16T07:21:51;8.50;;;2.63;;
64060;SDS011;60147;55.036;73.242;2023-05-16T07:24:18;9.82;;;2.88;;
64060;SDS011;60147;55.036;73.242;2023-05-16T07:26:44;8.98;;;1.92;;
64060;SDS011;60147;55.036;73.242;2023-05-16T07:29:10;4.13;;;1.67;;
64060;SDS011;60147;55.036;73.242;2023-05-16T07:31:36;6.05;;;2.30;;
64060;SDS011;60147;55.036;73.242;2023-05-16T07:34:39;14.10;;;1.90;;
64060;SDS011;60147;55.036;73.242;2023-05-16T07:37:05;8.93;;;2.15;;
64060;SDS011;60147;55.036;73.242;2023-05-16T07:39:38;5.35;;;2.03;;
64060;SDS011;60147;55.036;73.242;2023-05-16T07:42:05;7.10;;;2.05;;
64060;SDS011;60147;55.036;73.242;2023-05-16T07:47:16;10.00;;;1.90;;
64060;SDS011;60147;55.036;73.242;2023-05-16T07:49:41;7.15;;;2.10;;
64060;SDS011;60147;55.036;73.242;2023-05-16T07:52:08;9.60;;;2.40;;
64060;SDS011;60147;55.036;73.242;2023-05-16T07:54:34;12.70;;;2.10;;
64060;SDS011;60147;55.036;73.242;2023-05-16T07:57:00;6.30;;;2.17;;
64060;SDS011;60147;55.036;73.242;2023-05-16T07:59:27;10.93;;;2.95;;
64060;SDS011;60147;55.036;73.242;2023-05-16T08:01:52;10.02;;;2.45;;
64060;SDS011;60147;55.036;73.242;2023-05-16T08:04:19;7.03;;;2.40;;
64060;SDS011;60147;55.036;73.242;2023-05-16T08:09:30;8.25;;;2.42;;
64060;SDS011;60147;55.036;73.242;2023-05-16T08:11:56;8.68;;;2.53;;
64060;SDS011;60147;55.036;73.242;2023-05-16T08:14:22;6.80;;;2.35;;
64060;SDS011;60147;55.036;73.242;2023-05-16T08:16:48;9.57;;;3.58;;
64060;SDS011;60147;55.036;73.242;2023-05-16T08:19:14;10.88;;;2.85;;
64060;SDS011;60147;55.036;73.242;2023-05-16T08:21:39;13.98;;;2.80;;
64060;SDS011;60147;55.036;73.242;2023-05-16T08:26:51;19.30;;;3.47;;
64060;SDS011;60147;55.036;73.242;2023-05-16T08:29:17;5.72;;;2.38;;
64060;SDS011;60147;55.036;73.242;2023-05-16T08:31:42;11.93;;;3.30;;
64060;SDS011;60147;55.036;73.242;2023-05-16T08:34:08;11.57;;;3.13;;
64060;SDS011;60147;55.036;73.242;2023-05-16T08:36:38;9.80;;;3.00;;
64060;SDS011;60147;55.036;73.242;2023-05-16T08:42:26;5.93;;;3.05;;
64060;SDS011;60147;55.036;73.242;2023-05-16T08:44:52;18.23;;;3.20;;
64060;SDS011;60147;55.036;73.242;2023-05-16T08:47:19;9.80;;;3.42;;
64060;SDS011;60147;55.036;73.242;2023-05-16T08:49:46;13.25;;;3.05;;
64060;SDS011;60147;55.036;73.242;2023-05-16T08:52:12;8.80;;;3.08;;
64060;SDS011;60147;55.036;73.242;2023-05-16T08:54:38;13.05;;;2.70;;
64060;SDS011;60147;55.036;73.242;2023-05-16T08:57:05;11.00;;;3.13;;
64060;SDS011;60147;55.036;73.242;2023-05-16T08:59:32;6.72;;;2.45;;
64060;SDS011;60147;55.036;73.242;2023-05-16T09:01:58;5.95;;;2.13;;
64060;SDS011;60147;55.036;73.242;2023-05-16T09:04:24;4.65;;;2.35;;
64060;SDS011;60147;55.036;73.242;2023-05-16T09:06:50;6.85;;;2.20;;
64060;SDS011;60147;55.036;73.242;2023-05-16T09:09:16;3.83;;;2.15;;
64060;SDS011;60147;55.036;73.242;2023-05-16T09:11:42;8.73;;;2.00;;
64060;SDS011;60147;55.036;73.242;2023-05-16T09:14:09;13.95;;;2.22;;
64060;SDS011;60147;55.036;73.242;2023-05-16T09:16:35;6.72;;;2.15;;
64060;SDS011;60147;55.036;73.242;2023-05-16T09:19:00;9.55;;;2.60;;
64060;SDS011;60147;55.036;73.242;2023-05-16T09:21:27;8.18;;;1.80;;
64060;SDS011;60147;55.036;73.242;2023-05-16T09:23:53;10.90;;;2.72;;
64060;SDS011;60147;55.036;73.242;2023-05-16T09:26:19;8.18;;;1.98;;
64060;SDS011;60147;55.036;73.242;2023-05-16T09:28:46;8.80;;;3.08;;
64060;SDS011;60147;55.036;73.242;2023-05-16T09:31:25;4.60;;;1.65;;
64060;SDS011;60147;55.036;73.242;2023-05-16T09:33:51;9.57;;;2.00;;
64060;SDS011;60147;55.036;73.242;2023-05-16T09:36:17;15.30;;;4.22;;
64060;SDS011;60147;55.036;73.242;2023-05-16T09:38:44;6.78;;;1.90;;
64060;SDS011;60147;55.036;73.242;2023-05-16T09:41:10;6.65;;;2.00;;
64060;SDS011;60147;55.036;73.242;2023-05-16T09:43:39;4.25;;;1.38;;
64060;SDS011;60147;55.036;73.242;2023-05-16T09:46:06;9.57;;;2.20;;
64060;SDS011;60147;55.036;73.242;2023-05-16T09:48:32;4.13;;;1.70;;
64060;SDS011;60147;55.036;73.242;2023-05-16T09:50:58;10.85;;;2.00;;
64060;SDS011;60147;55.036;73.242;2023-05-16T09:53:29;9.35;;;1.80;;
64060;SDS011;60147;55.036;73.242;2023-05-16T09:55:59;8.10;;;1.90;;
64060;SDS011;60147;55.036;73.242;2023-05-16T09:58:30;5.55;;;1.50;;
64060;SDS011;60147;55.036;73.242;2023-05-16T10:00:56;9.68;;;1.90;;
64060;SDS011;60147;55.036;73.242;2023-05-16T10:03:23;7.07;;;1.92;;
64060;SDS011;60147;55.036;73.242;2023-05-16T10:05:49;5.85;;;1.80;;
64060;SDS011;60147;55.036;73.242;2023-05-16T10:08:19;9.88;;;1.85;;
64060;SDS011;60147;55.036;73.242;2023-05-16T10:10:45;5.25;;;2.33;;
64060;SDS011;60147;55.036;73.242;2023-05-16T10:13:14;16.10;;;5.00;;
64060;SDS011;60147;55.036;73.242;2023-05-16T10:15:41;9.00;;;2.80;;
64060;SDS011;60147;55.036;73.242;2023-05-16T10:18:08;10.60;;;2.00;;
64060;SDS011;60147;55.036;73.242;2023-05-16T10:20:38;8.75;;;1.80;;
64060;SDS011;60147;55.036;73.242;2023-05-16T10:23:06;3.00;;;1.60;;
64060;SDS011;60147;55.036;73.242;2023-05-16T10:25:43;6.82;;;1.90;;
64060;SDS011;60147;55.036;73.242;2023-05-16T10:28:09;6.68;;;2.00;;
64060;SDS011;60147;55.036;73.242;2023-05-16T10:30:35;9.98;;;2.08;;
64060;SDS011;60147;55.036;73.242;2023-05-16T10:33:01;7.55;;;1.95;;
64060;SDS011;60147;55.036;73.242;2023-05-16T10:35:29;13.60;;;2.20;;
64060;SDS011;60147;55.036;73.242;2023-05-16T10:37:55;8.40;;;2.10;;
64060;SDS011;60147;55.036;73.242;2023-05-16T10:40:22;4.85;;;2.20;;
64060;SDS011;60147;55.036;73.242;2023-05-16T10:42:59;6.60;;;1.98;;
64060;SDS011;60147;55.036;73.242;2023-05-16T10:45:25;6.47;;;2.00;;
64060;SDS011;60147;55.036;73.242;2023-05-16T10:48:01;11.70;;;2.75;;
64060;SDS011;60147;55.036;73.242;2023-05-16T10:50:31;6.00;;;2.40;;
64060;SDS011;60147;55.036;73.242;2023-05-16T11:17:12;7.20;;;3.35;;
64060;SDS011;60147;55.036;73.242;2023-05-16T11:22:10;9.25;;;3.20;;
64060;SDS011;60147;55.036;73.242;2023-05-16T11:24:37;13.13;;;3.90;;
64060;SDS011;60147;55.036;73.242;2023-05-16T11:27:04;9.35;;;3.22;;
64060;SDS011;60147;55.036;73.242;2023-05-16T11:29:31;8.80;;;3.55;;
64060;SDS011;60147;55.036;73.242;2023-05-16T11:31:59;11.77;;;3.13;;
64060;SDS011;60147;55.036;73.242;2023-05-16T11:34:25;10.18;;;3.40;;
64060;SDS011;60147;55.036;73.242;2023-05-16T11:36:57;6.88;;;2.72;;
64060;SDS011;60147;55.036;73.242;2023-05-16T11:39:24;11.15;;;3.60;;
64060;SDS011;60147;55.036;73.242;2023-05-16T11:41:52;7.60;;;3.80;;
64060;SDS011;60147;55.036;73.242;2023-05-16T11:44:19;12.95;;;4.50;;
64060;SDS011;60147;55.036;73.242;2023-05-16T11:46:47;11.45;;;3.75;;
64060;SDS011;60147;55.036;73.242;2023-05-16T11:49:13;8.88;;;4.03;;
64060;SDS011;60147;55.036;73.242;2023-05-16T11:51:39;10.73;;;4.15;;
64060;SDS011;60147;55.036;73.242;2023-05-16T11:54:08;6.80;;;4.10;;
64060;SDS011;60147;55.036;73.242;2023-05-16T11:56:34;7.78;;;3.47;;
64060;SDS011;60147;55.036;73.242;2023-05-16T11:59:01;8.55;;;3.45;;
64060;SDS011;60147;55.036;73.242;2023-05-16T12:01:31;8.88;;;3.80;;
64060;SDS011;60147;55.036;73.242;2023-05-16T12:03:58;27.27;;;8.18;;
64060;SDS011;60147;55.036;73.242;2023-05-16T12:06:24;15.93;;;7.60;;
64060;SDS011;60147;55.036;73.242;2023-05-16T12:08:50;49.80;;;29.05;;
64060;SDS011;60147;55.036;73.242;2023-05-16T12:11:16;39.92;;;21.52;;
64060;SDS011;60147;55.036;73.242;2023-05-16T12:13:42;22.88;;;15.85;;
64060;SDS011;60147;55.036;73.242;2023-05-16T12:16:09;21.27;;;11.57;;
64060;SDS011;60147;55.036;73.242;2023-05-16T12:18:36;31.15;;;18.20;;
64060;SDS011;60147;55.036;73.242;2023-05-16T12:21:04;17.98;;;10.05;;
64060;SDS011;60147;55.036;73.242;2023-05-16T12:23:31;27.00;;;12.00;;
64060;SDS011;60147;55.036;73.242;2023-05-16T12:25:57;58.13;;;19.38;;
64060;SDS011;60147;55.036;73.242;2023-05-16T12:28:29;30.83;;;15.30;;
64060;SDS011;60147;55.036;73.242;2023-05-16T12:30:56;18.33;;;11.77;;
64060;SDS011;60147;55.036;73.242;2023-05-16T12:33:22;23.08;;;11.73;;
64060;SDS011;60147;55.036;73.242;2023-05-16T12:35:48;47.95;;;14.60;;
64060;SDS011;60147;55.036;73.242;2023-05-16T12:38:16;56.33;;;15.07;;
64060;SDS011;60147;55.036;73.242;2023-05-16T12:40:43;30.73;;;13.60;;
64060;SDS011;60147;55.036;73.242;2023-05-16T12:43:16;38.13;;;13.60;;
64060;SDS011;60147;55.036;73.242;2023-05-16T12:48:17;84.95;;;17.50;;
64060;SDS011;60147;55.036;73.242;2023-05-16T12:50:43;50.78;;;13.65;;
64060;SDS011;60147;55.036;73.242;2023-05-16T12:53:13;47.40;;;14.02;;
64060;SDS011;60147;55.036;73.242;2023-05-16T12:55:39;53.80;;;14.10;;
64060;SDS011;60147;55.036;73.242;2023-05-16T12:58:07;98.18;;;21.00;;
64060;SDS011;60147;55.036;73.242;2023-05-16T13:00:33;70.32;;;17.40;;
64060;SDS011;60147;55.036;73.242;2023-05-16T13:03:01;40.33;;;14.45;;
64060;SDS011;60147;55.036;73.242;2023-05-16T13:05:27;31.83;;;13.48;;
64060;SDS011;60147;55.036;73.242;2023-05-16T13:07:54;25.65;;;14.30;;
64060;SDS011;60147;55.036;73.242;2023-05-16T13:10:20;28.02;;;14.02;;
64060;SDS011;60147;55.036;73.242;2023-05-16T13:12:46;39.60;;;15.30;;
64060;SDS011;60147;55.036;73.242;2023-05-16T13:15:12;28.80;;;14.63;;
64060;SDS011;60147;55.036;73.242;2023-05-16T13:17:38;46.72;;;16.42;;
64060;SDS011;60147;55.036;73.242;2023-05-16T13:20:05;54.35;;;17.58;;
64060;SDS011;60147;55.036;73.242;2023-05-16T13:22:34;53.38;;;17.95;;
64060;SDS011;60147;55.036;73.242;2023-05-16T13:25:01;46.70;;;17.33;;
64060;SDS011;60147;55.036;73.242;2023-05-16T13:27:29;31.17;;;15.70;;
64060;SDS011;60147;55.036;73.242;2023-05-16T13:29:55;30.35;;;15.15;;
64060;SDS011;60147;55.036;73.242;2023-05-16T13:32:21;31.58;;;14.20;;
64060;SDS011;60147;55.036;73.242;2023-05-16T13:34:47;36.38;;;15.77;;
64060;SDS011;60147;55.036;73.242;2023-05-16T13:37:12;32.85;;;14.50;;
64060;SDS011;60147;55.036;73.242;2023-05-16T13:39:38;26.33;;;13.18;;
64060;SDS011;60147;55.036;73.242;2023-05-16T13:42:06;27.65;;;14.20;;
64060;SDS011;60147;55.036;73.242;2023-05-16T13:44:32;33.85;;;15.73;;
64060;SDS011;60147;55.036;73.242;2023-05-16T13:46:58;33.97;;;14.90;;
64060;SDS011;60147;55.036;73.242;2023-05-16T13:49:24;92.22;;;19.08;;
64060;SDS011;60147;55.036;73.242;2023-05-16T13:51:50;107.57;;;20.33;;
64060;SDS011;60147;55.036;73.242;2023-05-16T13:54:19;63.30;;;17.27;;
64060;SDS011;60147;55.036;73.242;2023-05-16T13:56:47;34.78;;;13.68;;
64060;SDS011;60147;55.036;73.242;2023-05-16T13:59:13;24.75;;;11.07;;
64060;SDS011;60147;55.036;73.242;2023-05-16T14:01:39;28.77;;;11.25;;
64060;SDS011;60147;55.036;73.242;2023-05-16T14:04:06;23.17;;;9.75;;
64060;SDS011;60147;55.036;73.242;2023-05-16T14:06:32;21.65;;;9.55;;
64060;SDS011;60147;55.036;73.242;2023-05-16T14:08:59;26.75;;;8.85;;
64060;SDS011;60147;55.036;73.242;2023-05-16T14:11:24;19.70;;;7.10;;
64060;SDS011;60147;55.036;73.242;2023-05-16T14:13:52;28.25;;;7.32;;
64060;SDS011;60147;55.036;73.242;2023-05-16T14:16:18;15.65;;;6.03;;
64060;SDS011;60147;55.036;73.242;2023-05-16T14:18:44;16.42;;;6.68;;
64060;SDS011;60147;55.036;73.242;2023-05-16T14:21:10;11.20;;;5.13;;
64060;SDS011;60147;55.036;73.242;2023-05-16T14:23:36;13.40;;;4.82;;
64060;SDS011;60147;55.036;73.242;2023-05-16T14:26:01;11.00;;;4.55;;
64060;SDS011;60147;55.036;73.242;2023-05-16T14:28:29;21.58;;;6.22;;
64060;SDS011;60147;55.036;73.242;2023-05-16T14:30:57;11.10;;;5.15;;
64060;SDS011;60147;55.036;73.242;2023-05-16T14:33:24;17.25;;;4.93;;
64060;SDS011;60147;55.036;73.242;2023-05-16T14:35:51;20.40;;;4.75;;
64060;SDS011;60147;55.036;73.242;2023-05-16T14:38:16;13.05;;;5.20;;
64060;SDS011;60147;55.036;73.242;2023-05-16T14:40:42;11.30;;;4.68;;
64060;SDS011;60147;55.036;73.242;2023-05-16T14:43:08;19.35;;;4.72;;
64060;SDS011;60147;55.036;73.242;2023-05-16T14:45:34;10.05;;;3.83;;
64060;SDS011;60147;55.036;73.242;2023-05-16T14:48:00;17.48;;;3.80;;
64060;SDS011;60147;55.036;73.242;2023-05-16T14:50:26;15.75;;;4.75;;
64060;SDS011;60147;55.036;73.242;2023-05-16T14:52:52;17.92;;;5.03;;
64060;SDS011;60147;55.036;73.242;2023-05-16T14:55:19;19.40;;;5.18;;
64060;SDS011;60147;55.036;73.242;2023-05-16T14:57:45;10.95;;;4.60;;
64060;SDS011;60147;55.036;73.242;2023-05-16T15:00:11;10.25;;;4.50;;
64060;SDS011;60147;55.036;73.242;2023-05-16T15:02:38;15.75;;;4.90;;
64060;SDS011;60147;55.036;73.242;2023-05-16T15:05:04;12.05;;;4.38;;
64060;SDS011;60147;55.036;73.242;2023-05-16T15:07:31;11.88;;;4.95;;
64060;SDS011;60147;55.036;73.242;2023-05-16T15:09:57;10.57;;;5.20;;
64060;SDS011;60147;55.036;73.242;2023-05-16T15:12:23;14.82;;;5.50;;
64060;SDS011;60147;55.036;73.242;2023-05-16T15:14:48;14.40;;;5.78;;
64060;SDS011;60147;55.036;73.242;2023-05-16T15:17:14;15.00;;;5.63;;
64060;SDS011;60147;55.036;73.242;2023-05-16T15:19:40;10.43;;;5.70;;
64060;SDS011;60147;55.036;73.242;2023-05-16T15:22:06;13.27;;;6.30;;
64060;SDS011;60147;55.036;73.242;2023-05-16T15:24:33;13.02;;;6.47;;
64060;SDS011;60147;55.036;73.242;2023-05-16T15:26:59;10.90;;;5.65;;
64060;SDS011;60147;55.036;73.242;2023-05-16T15:29:27;9.68;;;5.00;;
64060;SDS011;60147;55.036;73.242;2023-05-16T15:31:53;15.90;;;5.22;;
64060;SDS011;60147;55.036;73.242;2023-05-16T15:34:19;7.85;;;4.30;;
64060;SDS011;60147;55.036;73.242;2023-05-16T15:36:45;17.52;;;4.03;;
64060;SDS011;60147;55.036;73.242;2023-05-16T15:39:11;7.40;;;3.03;;
64060;SDS011;60147;55.036;73.242;2023-05-16T15:41:36;7.82;;;3.08;;
64060;SDS011;60147;55.036;73.242;2023-05-16T15:44:02;12.20;;;3.38;;
64060;SDS011;60147;55.036;73.242;2023-05-16T15:46:28;11.57;;;3.78;;
64060;SDS011;60147;55.036;73.242;2023-05-16T15:48:57;12.70;;;5.40;;
64060;SDS011;60147;55.036;73.242;2023-05-16T15:51:23;22.08;;;6.43;;
64060;SDS011;60147;55.036;73.242;2023-05-16T15:53:50;20.38;;;7.63;;
64060;SDS011;60147;55.036;73.242;2023-05-16T15:56:17;34.53;;;9.85;;
64060;SDS011;60147;55.036;73.242;2023-05-16T15:58:44;20.52;;;9.23;;
64060;SDS011;60147;55.036;73.242;2023-05-16T16:01:11;23.23;;;8.45;;
64060;SDS011;60147;55.036;73.242;2023-05-16T16:03:37;21.17;;;8.13;;
64060;SDS011;60147;55.036;73.242;2023-05-16T16:06:03;17.27;;;6.07;;
64060;SDS011;60147;55.036;73.242;2023-05-16T16:08:30;12.43;;;4.82;;